createdAt,value
2019-01-18T00:01:35.506Z,37.70
2019-01-18T00:04:41.141Z,37.60
2019-01-18T00:07:46.819Z,37.50
2019-01-18T00:10:52.473Z,37.10
2019-01-18T00:13:58.100Z,37.00
2019-01-18T00:17:03.750Z,37.00
2019-01-18T00:20:09.810Z,36.70
2019-01-18T00:23:15.461Z,36.90
2019-01-18T00:26:21.142Z,37.00
2019-01-18T00:29:29.767Z,36.50
2019-01-18T00:32:34.093Z,37.50
2019-01-18T00:35:39.747Z,36.90
2019-01-18T00:38:45.389Z,36.50
2019-01-18T00:41:54.312Z,36.20
2019-01-18T00:44:59.998Z,36.10
2019-01-18T00:48:05.737Z,35.80
2019-01-18T00:51:13.086Z,35.90
2019-01-18T00:54:18.702Z,35.90
2019-01-18T00:57:25.786Z,36.30
2019-01-18T01:00:33.141Z,36.10
2019-01-18T01:03:38.837Z,36.60
2019-01-18T01:06:44.458Z,37.10
2019-01-18T01:09:50.101Z,37.10
2019-01-18T01:12:55.785Z,37.00
2019-01-18T01:16:01.515Z,36.80
2019-01-18T01:19:07.190Z,36.70
2019-01-18T01:22:12.850Z,36.60
2019-01-18T01:25:19.661Z,36.50
2019-01-18T01:28:25.281Z,36.40
2019-01-18T01:31:31.018Z,36.20
2019-01-18T01:34:38.361Z,36.10
2019-01-18T01:37:44.224Z,36.10
2019-01-18T01:40:49.907Z,35.90
2019-01-18T01:43:55.683Z,35.90
2019-01-18T01:47:01.345Z,35.90
2019-01-18T01:50:08.639Z,35.70
2019-01-18T01:53:16.134Z,35.60
2019-01-18T01:56:21.793Z,35.50
2019-01-18T01:59:27.438Z,35.40
2019-01-18T02:02:33.475Z,35.30
2019-01-18T02:05:39.150Z,35.20
2019-01-18T02:08:44.948Z,35.10
2019-01-18T02:11:51.429Z,35.00
2019-01-18T02:14:57.246Z,35.00
2019-01-18T02:18:02.868Z,35.00
2019-01-18T02:21:08.589Z,35.00
2019-01-18T02:24:14.200Z,34.90
2019-01-18T02:27:20.985Z,34.50
2019-01-18T02:30:28.652Z,34.60
2019-01-18T02:33:34.373Z,34.60
2019-01-18T02:36:40.461Z,34.40
2019-01-18T02:39:46.121Z,34.20
2019-01-18T02:42:51.780Z,34.20
2019-01-18T02:46:00.533Z,34.00
2019-01-18T02:49:07.270Z,34.10
2019-01-18T02:52:12.932Z,34.10
2019-01-18T02:55:18.785Z,33.90
2019-01-18T02:58:24.471Z,33.80
2019-01-18T03:01:30.126Z,33.80
2019-01-18T03:04:35.879Z,33.70
2019-01-18T03:07:41.494Z,33.60
2019-01-18T03:10:47.151Z,33.50
2019-01-18T03:13:52.825Z,33.40
2019-01-18T03:16:58.483Z,33.40
2019-01-18T03:20:04.243Z,33.30
2019-01-18T03:23:09.866Z,33.40
2019-01-18T03:26:15.510Z,33.40
2019-01-18T03:29:21.202Z,33.30
2019-01-18T03:32:26.854Z,33.10
2019-01-18T03:35:32.506Z,33.10
2019-01-18T03:38:38.154Z,33.00
2019-01-18T03:41:43.778Z,33.00
2019-01-18T03:44:49.466Z,33.00
2019-01-18T03:47:55.114Z,32.90
2019-01-18T03:51:00.770Z,32.90
2019-01-18T03:54:06.423Z,32.90
2019-01-18T03:57:12.041Z,32.80
2019-01-18T04:00:26.360Z,32.60
2019-01-18T04:03:30.007Z,32.60
2019-01-18T04:06:35.696Z,32.70
2019-01-18T04:09:41.337Z,32.40
2019-01-18T04:12:46.958Z,32.40
2019-01-18T04:15:52.615Z,32.30
2019-01-18T04:18:58.404Z,32.30
2019-01-18T04:22:04.150Z,32.20
2019-01-18T04:25:12.503Z,32.20
2019-01-18T04:28:18.102Z,32.30
2019-01-18T04:31:23.778Z,32.20
2019-01-18T04:34:29.329Z,32.90
2019-01-18T04:37:34.956Z,32.00
2019-01-18T04:40:40.605Z,32.00
2019-01-18T04:43:46.365Z,32.10
2019-01-18T04:46:52.038Z,32.00
2019-01-18T04:49:57.702Z,32.00
2019-01-18T04:53:03.347Z,32.00
2019-01-18T04:56:08.970Z,32.00
2019-01-18T04:59:14.646Z,32.00
2019-01-18T05:02:20.305Z,32.00
2019-01-18T05:05:26.526Z,32.00
2019-01-18T05:08:32.225Z,31.90
2019-01-18T05:11:38.239Z,31.90
2019-01-18T05:14:43.930Z,31.90
2019-01-18T05:17:49.675Z,31.90
2019-01-18T05:20:55.354Z,31.80
2019-01-18T05:24:01.039Z,31.70
2019-01-18T05:27:06.646Z,31.70
2019-01-18T05:30:15.653Z,31.70
2019-01-18T05:33:21.228Z,31.90
2019-01-18T05:36:26.921Z,31.80
2019-01-18T05:39:32.523Z,31.90
2019-01-18T05:42:38.210Z,31.80
2019-01-18T05:45:44.815Z,31.70
2019-01-18T05:48:50.428Z,31.80
2019-01-18T05:51:56.142Z,31.80
2019-01-18T05:55:01.881Z,31.70
2019-01-18T05:58:07.582Z,31.70
2019-01-18T06:01:14.574Z,31.70
2019-01-18T06:04:20.221Z,31.60
2019-01-18T06:07:25.911Z,31.50
2019-01-18T06:10:31.526Z,31.70
2019-01-18T06:13:37.507Z,31.50
2019-01-18T06:16:43.226Z,31.30
2019-01-18T06:19:49.030Z,31.40
2019-01-18T06:22:54.650Z,31.40
2019-01-18T06:26:00.174Z,31.30
2019-01-18T06:29:06.153Z,31.30
2019-01-18T06:32:11.811Z,31.30
2019-01-18T06:35:17.970Z,31.10
2019-01-18T06:38:23.633Z,31.20
2019-01-18T06:41:35.506Z,31.30
2019-01-18T06:44:41.182Z,31.30
2019-01-18T06:47:46.831Z,31.30
2019-01-18T06:50:53.486Z,31.40
2019-01-18T06:53:59.126Z,31.30
2019-01-18T06:57:04.909Z,31.00
2019-01-18T07:00:17.022Z,31.10
2019-01-18T07:03:22.778Z,31.10
2019-01-18T07:06:28.430Z,31.10
2019-01-18T07:09:34.181Z,32.10
2019-01-18T07:12:39.933Z,32.90
2019-01-18T07:15:45.615Z,33.60
2019-01-18T07:18:51.264Z,32.40
2019-01-18T07:21:57.050Z,32.70
2019-01-18T07:25:02.801Z,33.30
2019-01-18T07:28:08.454Z,33.00
2019-01-18T07:31:15.184Z,33.00
2019-01-18T07:34:20.990Z,32.90
2019-01-18T07:37:26.638Z,33.90
2019-01-18T07:40:32.295Z,33.30
2019-01-18T07:43:37.926Z,33.30
2019-01-18T07:46:43.598Z,33.20
2019-01-18T07:49:49.247Z,33.30
2019-01-18T07:52:55.621Z,33.40
2019-01-18T07:56:01.246Z,33.50
2019-01-18T07:59:06.922Z,33.30
2019-01-18T08:02:12.578Z,33.30
2019-01-18T08:05:18.510Z,33.00
2019-01-18T08:08:24.267Z,33.30
2019-01-18T08:11:29.917Z,33.30
2019-01-18T08:14:35.598Z,33.30
2019-01-18T08:17:41.952Z,33.40
2019-01-18T08:20:48.360Z,33.50
2019-01-18T08:23:54.089Z,33.40
2019-01-18T08:26:59.716Z,33.60
2019-01-18T08:30:07.623Z,33.70
2019-01-18T08:33:13.279Z,33.60
2019-01-18T08:36:19.035Z,33.40
2019-01-18T08:39:24.814Z,33.80
2019-01-18T08:42:30.467Z,33.60
2019-01-18T08:45:39.064Z,33.90
2019-01-18T08:48:44.741Z,33.90
2019-01-18T08:51:50.402Z,33.80
2019-01-18T08:54:56.134Z,33.80
2019-01-18T08:58:01.922Z,33.90
2019-01-18T09:01:07.559Z,34.00
2019-01-18T09:04:13.319Z,33.90
2019-01-18T09:07:18.943Z,34.10
2019-01-18T09:10:26.339Z,34.00
2019-01-18T09:13:32.012Z,33.40
2019-01-18T09:16:38.655Z,34.10
2019-01-18T09:19:44.342Z,34.00
2019-01-18T09:22:50.359Z,33.80
2019-01-18T09:25:56.059Z,33.90
2019-01-18T09:29:01.821Z,34.20
2019-01-18T09:32:07.481Z,33.80
2019-01-18T09:35:14.019Z,35.10
2019-01-18T09:38:19.690Z,34.10
2019-01-18T09:41:25.222Z,34.00
2019-01-18T09:44:30.890Z,34.40
2019-01-18T09:47:36.799Z,34.50
2019-01-18T09:50:44.214Z,34.40
2019-01-18T09:53:49.974Z,35.20
2019-01-18T09:56:55.649Z,34.60
2019-01-18T10:00:01.361Z,34.50
2019-01-18T10:03:07.135Z,34.60
2019-01-18T10:06:12.931Z,34.50
2019-01-18T10:09:18.574Z,34.50
2019-01-18T10:12:24.641Z,35.10
2019-01-18T10:15:32.723Z,36.40
2019-01-18T10:18:38.446Z,36.60
2019-01-18T10:21:44.039Z,36.40
2019-01-18T10:24:51.384Z,36.20
2019-01-18T10:27:57.102Z,35.90
2019-01-18T10:31:02.721Z,35.70
2019-01-18T10:34:08.486Z,35.40
2019-01-18T10:37:14.238Z,35.00
2019-01-18T10:40:20.122Z,34.80
2019-01-18T10:43:25.871Z,34.60
2019-01-18T10:46:31.635Z,34.40
2019-01-18T10:49:37.303Z,34.30
2019-01-18T10:52:43.218Z,34.10
2019-01-18T10:55:48.973Z,34.60
2019-01-18T10:58:54.646Z,33.90
2019-01-18T11:02:07.196Z,33.80
2019-01-18T11:05:10.027Z,34.30
2019-01-18T11:08:17.509Z,33.60
2019-01-18T11:11:23.097Z,33.50
2019-01-18T11:14:28.754Z,33.50
2019-01-18T11:17:34.378Z,33.50
2019-01-18T11:20:51.144Z,33.40
2019-01-18T11:23:57.898Z,33.50
2019-01-18T11:27:03.547Z,33.60
2019-01-18T11:30:12.484Z,33.60
2019-01-18T11:33:18.143Z,34.30
2019-01-18T11:36:24.786Z,35.00
2019-01-18T11:39:30.562Z,35.20
2019-01-18T11:42:36.319Z,35.50
2019-01-18T11:45:42.047Z,35.70
2019-01-18T11:48:50.407Z,35.90
2019-01-18T11:51:55.118Z,36.00
2019-01-18T11:55:00.742Z,36.20
2019-01-18T11:58:06.400Z,36.40
2019-01-18T12:01:12.050Z,42.60
2019-01-18T12:04:17.734Z,40.40
2019-01-18T12:07:23.486Z,39.80
2019-01-18T12:10:30.952Z,40.10
2019-01-18T12:13:36.635Z,40.40
2019-01-18T12:16:42.363Z,41.50
2019-01-18T12:19:48.332Z,40.80
2019-01-18T12:22:54.002Z,40.80
2019-01-18T12:25:59.662Z,40.90
2019-01-18T12:29:05.614Z,41.80
2019-01-18T12:32:11.307Z,41.90
2019-01-18T12:35:16.990Z,41.70
2019-01-18T12:38:22.713Z,41.50
2019-01-18T12:41:28.428Z,41.10
2019-01-18T12:44:34.101Z,40.80
2019-01-18T12:47:39.938Z,40.50
2019-01-18T12:50:45.762Z,40.20
2019-01-18T12:53:51.450Z,39.80
2019-01-18T12:56:57.175Z,38.00
2019-01-18T13:00:02.858Z,37.70
2019-01-18T13:03:10.370Z,38.10
2019-01-18T13:06:15.981Z,39.00
2019-01-18T13:09:21.707Z,39.20
2019-01-18T13:12:27.311Z,39.40
2019-01-18T13:15:36.491Z,39.20
2019-01-18T13:18:44.000Z,39.40
2019-01-18T13:21:50.018Z,39.90
2019-01-18T13:24:55.611Z,41.50
2019-01-18T13:28:01.345Z,41.40
2019-01-18T13:31:06.949Z,41.30
2019-01-18T13:34:12.838Z,41.40
2019-01-18T13:37:18.462Z,41.20
2019-01-18T13:40:24.438Z,41.10
2019-01-18T13:43:30.051Z,40.80
2019-01-18T13:46:35.842Z,40.50
2019-01-18T13:49:41.478Z,40.20
2019-01-18T13:52:48.721Z,40.00
2019-01-18T13:55:54.541Z,39.80
2019-01-18T13:59:00.276Z,37.90
2019-01-18T14:02:07.709Z,35.40
2019-01-18T14:05:13.709Z,35.70
2019-01-18T14:08:19.399Z,39.40
2019-01-18T14:11:25.265Z,45.90
2019-01-18T14:14:30.903Z,50.50
2019-01-18T14:17:36.562Z,54.70
2019-01-18T14:20:42.306Z,58.70
2019-01-18T14:23:47.959Z,61.90
2019-01-18T14:26:53.617Z,64.70
2019-01-18T14:29:59.346Z,65.30
2019-01-18T14:33:05.030Z,66.00
2019-01-18T14:36:14.551Z,40.70
2019-01-18T14:39:18.170Z,42.50
2019-01-18T14:42:25.538Z,42.50
2019-01-18T14:45:36.309Z,42.90
2019-01-18T14:48:42.070Z,43.00
2019-01-18T14:51:47.718Z,44.20
2019-01-18T14:54:53.507Z,44.20
2019-01-18T14:57:59.337Z,54.80
2019-01-18T15:01:04.987Z,52.00
2019-01-18T15:04:10.539Z,54.60
2019-01-18T15:07:16.423Z,55.10
2019-01-18T15:10:22.761Z,53.10
2019-01-18T15:13:29.341Z,40.40
2019-01-18T15:16:34.994Z,45.20
2019-01-18T15:19:40.669Z,46.20
2019-01-18T15:22:46.322Z,46.40
2019-01-18T15:25:51.976Z,46.90
2019-01-18T15:28:57.601Z,46.80
2019-01-18T15:32:03.258Z,46.90
2019-01-18T15:35:11.049Z,46.50
2019-01-18T15:38:17.657Z,46.60
2019-01-18T15:41:23.310Z,46.10
2019-01-18T15:44:28.933Z,46.40
2019-01-18T15:47:34.617Z,46.20
2019-01-18T15:50:40.576Z,46.50
2019-01-18T15:53:46.225Z,46.20
2019-01-18T15:56:51.989Z,46.10
2019-01-18T15:59:57.638Z,46.00
2019-01-18T16:03:03.362Z,45.60
2019-01-18T16:06:09.014Z,45.60
2019-01-18T16:09:14.696Z,45.40
2019-01-18T16:12:20.350Z,45.60
2019-01-18T16:15:29.353Z,45.50
2019-01-18T16:18:35.953Z,45.10
2019-01-18T16:21:41.614Z,45.30
2019-01-18T16:24:47.256Z,45.10
2019-01-18T16:27:52.924Z,45.10
2019-01-18T16:30:58.538Z,45.10
2019-01-18T16:34:04.328Z,45.00
2019-01-18T16:37:09.973Z,44.80
2019-01-18T16:40:27.578Z,44.60
2019-01-18T16:43:36.407Z,44.50
2019-01-18T16:46:42.094Z,44.40
2019-01-18T16:49:47.830Z,44.50
2019-01-18T16:52:53.598Z,44.30
2019-01-18T16:55:59.338Z,44.50
2019-01-18T16:59:05.107Z,44.20
2019-01-18T17:02:10.901Z,44.30
2019-01-18T17:05:16.486Z,44.00
2019-01-18T17:08:22.390Z,44.00
2019-01-18T17:11:28.031Z,43.90
2019-01-18T17:14:33.722Z,43.80
2019-01-18T17:17:40.453Z,43.80
2019-01-18T17:20:46.253Z,43.50
2019-01-18T17:23:51.971Z,43.50
2019-01-18T17:26:57.702Z,43.30
2019-01-18T17:30:03.473Z,43.30
2019-01-18T17:33:09.342Z,42.90
2019-01-18T17:36:43.966Z,43.10
2019-01-18T17:40:33.251Z,42.90
2019-01-18T17:44:17.766Z,42.70
2019-01-18T17:48:25.418Z,42.70
2019-01-18T17:52:20.739Z,42.30
2019-01-18T17:56:10.321Z,42.00
2019-01-18T17:59:51.815Z,41.80
2019-01-18T18:03:36.478Z,41.80
2019-01-18T18:07:20.530Z,41.70
2019-01-18T18:11:12.085Z,42.00
2019-01-18T18:14:28.657Z,41.70
2019-01-18T18:18:11.186Z,41.80
2019-01-18T18:21:53.803Z,41.60
2019-01-18T18:25:37.326Z,41.70
2019-01-18T18:29:18.124Z,41.40
2019-01-18T18:33:09.249Z,41.30
2019-01-18T18:37:03.022Z,41.30
2019-01-18T18:40:32.846Z,41.30
2019-01-18T18:44:15.057Z,41.20
2019-01-18T18:47:46.709Z,41.00
2019-01-18T18:51:33.842Z,41.00
2019-01-18T18:55:29.566Z,41.00
2019-01-18T18:59:06.455Z,40.80
2019-01-18T19:03:12.522Z,40.90
2019-01-18T19:07:16.878Z,40.60
2019-01-18T19:10:53.842Z,40.50
2019-01-18T19:14:52.541Z,40.40
2019-01-18T19:18:37.524Z,40.30
2019-01-18T19:22:26.654Z,40.40
2019-01-18T19:26:22.042Z,40.30
2019-01-18T19:30:10.086Z,40.30
2019-01-18T19:33:46.759Z,40.30
2019-01-18T19:37:29.077Z,40.30
2019-01-18T19:41:21.223Z,40.30
2019-01-18T19:45:20.017Z,40.20
2019-01-18T19:49:06.934Z,40.20
2019-01-18T19:53:03.665Z,40.10
2019-01-18T19:56:56.381Z,40.10
2019-01-18T20:00:49.997Z,39.80
2019-01-18T20:04:32.807Z,40.70
2019-01-18T20:07:58.374Z,39.90
2019-01-18T20:11:44.368Z,39.80
2019-01-18T20:15:19.470Z,39.80
2019-01-18T20:19:02.126Z,39.60
2019-01-18T20:22:48.947Z,39.50
2019-01-18T20:26:26.006Z,39.40
2019-01-18T20:30:08.454Z,39.30
2019-01-18T20:34:18.353Z,39.30
2019-01-18T20:37:47.514Z,39.10
2019-01-18T20:41:43.344Z,39.00
2019-01-18T20:45:31.025Z,38.60
2019-01-18T20:49:20.154Z,38.40
2019-01-18T20:52:55.105Z,38.20
2019-01-18T20:56:33.546Z,38.00
2019-01-18T20:59:59.750Z,37.90
2019-01-18T21:03:41.786Z,37.80
2019-01-18T21:07:31.041Z,37.70
2019-01-18T21:11:15.215Z,37.70
2019-01-18T21:14:35.150Z,37.70
2019-01-18T21:18:12.469Z,37.60
2019-01-18T21:21:56.615Z,37.60
2019-01-18T21:25:40.782Z,37.50
2019-01-18T21:29:15.002Z,37.50
2019-01-18T21:32:50.576Z,37.60
2019-01-18T21:36:43.514Z,37.90
2019-01-18T21:40:19.102Z,38.00
2019-01-18T21:44:21.048Z,37.90
2019-01-18T21:48:16.444Z,37.90
2019-01-18T21:51:47.246Z,37.60
2019-01-18T21:55:17.758Z,37.80
2019-01-18T21:58:43.777Z,37.80
2019-01-18T22:02:23.158Z,37.80
2019-01-18T22:06:05.324Z,37.60
2019-01-18T22:09:45.181Z,37.70
2019-01-18T22:13:30.562Z,37.50
2019-01-18T22:17:23.417Z,37.50
2019-01-18T22:21:16.326Z,37.50
2019-01-18T22:25:08.623Z,37.60
2019-01-18T22:28:45.621Z,38.30
2019-01-18T22:31:57.681Z,37.50
2019-01-18T22:35:29.597Z,37.00
2019-01-18T22:39:34.631Z,37.00
2019-01-18T22:43:02.550Z,37.20
2019-01-18T22:46:53.417Z,37.40
2019-01-18T22:50:36.856Z,37.30
2019-01-18T22:54:20.477Z,37.20
2019-01-18T22:58:00.569Z,37.10
2019-01-18T23:01:37.414Z,37.10
2019-01-18T23:05:09.112Z,37.30
2019-01-18T23:09:15.653Z,37.20
2019-01-18T23:12:45.818Z,37.30
2019-01-18T23:16:29.458Z,37.20
2019-01-18T23:20:25.476Z,37.20
2019-01-18T23:23:46.866Z,37.10
2019-01-18T23:27:25.136Z,37.10
2019-01-18T23:30:46.519Z,37.20
2019-01-18T23:34:32.058Z,37.00
2019-01-18T23:38:09.151Z,36.90
2019-01-18T23:41:59.284Z,37.00
2019-01-18T23:45:37.283Z,36.90
2019-01-18T23:49:10.477Z,36.80
2019-01-18T23:53:04.582Z,36.70
2019-01-18T23:56:43.615Z,36.60
